sensor_id;sensor_type;location;lat;lon;timestamp;P1;durP1;ratioP1;P2;durP2;ratioP2
9665;SDS011;4871;52.004;5.924;2022-12-20T00:00:00;3.50;;;2.40;;
9665;SDS011;4871;52.004;5.924;2022-12-20T00:01:00;4.30;;;2.50;;
9665;SDS011;4871;52.004;5.924;2022-12-20T00:02:00;4.30;;;2.50;;
9665;SDS011;4871;52.004;5.924;2022-12-20T00:03:00;4.30;;;2.50;;
9665;SDS011;4871;52.004;5.924;2022-12-20T00:04:02;4.30;;;2.50;;
9665;SDS011;4871;52.004;5.924;2022-12-20T00:05:00;4.30;;;2.50;;
9665;SDS011;4871;52.004;5.924;2022-12-20T00:06:00;4.30;;;2.50;;
9665;SDS011;4871;52.004;5.924;2022-12-20T00:07:00;4.30;;;2.50;;
9665;SDS011;4871;52.004;5.924;2022-12-20T00:08:00;4.30;;;2.50;;
9665;SDS011;4871;52.004;5.924;2022-12-20T00:09:00;4.30;;;2.50;;
9665;SDS011;4871;52.004;5.924;2022-12-20T00:10:00;4.30;;;2.50;;
9665;SDS011;4871;52.004;5.924;2022-12-20T00:11:01;4.30;;;2.50;;
9665;SDS011;4871;52.004;5.924;2022-12-20T00:12:00;4.30;;;2.50;;
9665;SDS011;4871;52.004;5.924;2022-12-20T00:13:01;4.30;;;2.50;;
9665;SDS011;4871;52.004;5.924;2022-12-20T00:14:00;4.30;;;2.50;;
9665;SDS011;4871;52.004;5.924;2022-12-20T00:15:00;4.30;;;2.50;;
9665;SDS011;4871;52.004;5.924;2022-12-20T00:16:08;4.30;;;2.50;;
9665;SDS011;4871;52.004;5.924;2022-12-20T00:17:00;4.30;;;2.50;;
9665;SDS011;4871;52.004;5.924;2022-12-20T00:18:00;4.30;;;2.50;;
9665;SDS011;4871;52.004;5.924;2022-12-20T00:19:01;4.30;;;2.50;;
9665;SDS011;4871;52.004;5.924;2022-12-20T00:20:00;4.30;;;2.50;;
9665;SDS011;4871;52.004;5.924;2022-12-20T00:21:01;4.30;;;2.50;;
9665;SDS011;4871;52.004;5.924;2022-12-20T00:22:00;4.30;;;2.50;;
9665;SDS011;4871;52.004;5.924;2022-12-20T00:23:00;4.30;;;2.50;;
9665;SDS011;4871;52.004;5.924;2022-12-20T00:24:00;4.30;;;2.50;;
9665;SDS011;4871;52.004;5.924;2022-12-20T00:25:00;4.30;;;2.50;;
9665;SDS011;4871;52.004;5.924;2022-12-20T00:26:01;4.30;;;2.50;;
9665;SDS011;4871;52.004;5.924;2022-12-20T00:27:00;4.30;;;2.50;;
9665;SDS011;4871;52.004;5.924;2022-12-20T00:28:02;4.30;;;2.50;;
9665;SDS011;4871;52.004;5.924;2022-12-20T00:29:01;4.30;;;2.50;;
9665;SDS011;4871;52.004;5.924;2022-12-20T00:30:00;4.30;;;2.50;;
9665;SDS011;4871;52.004;5.924;2022-12-20T00:31:00;3.00;;;2.10;;
9665;SDS011;4871;52.004;5.924;2022-12-20T00:32:00;3.00;;;2.10;;
9665;SDS011;4871;52.004;5.924;2022-12-20T00:33:00;3.00;;;2.10;;
9665;SDS011;4871;52.004;5.924;2022-12-20T00:34:00;3.00;;;2.10;;
9665;SDS011;4871;52.004;5.924;2022-12-20T00:35:00;3.00;;;2.10;;
9665;SDS011;4871;52.004;5.924;2022-12-20T00:36:00;3.00;;;2.10;;
9665;SDS011;4871;52.004;5.924;2022-12-20T00:37:00;3.00;;;2.10;;
9665;SDS011;4871;52.004;5.924;2022-12-20T00:38:00;3.00;;;2.10;;
9665;SDS011;4871;52.004;5.924;2022-12-20T00:39:00;3.00;;;2.10;;
9665;SDS011;4871;52.004;5.924;2022-12-20T00:40:00;3.00;;;2.10;;
9665;SDS011;4871;52.004;5.924;2022-12-20T00:41:04;3.00;;;2.10;;
9665;SDS011;4871;52.004;5.924;2022-12-20T00:42:00;3.00;;;2.10;;
9665;SDS011;4871;52.004;5.924;2022-12-20T00:43:00;3.00;;;2.10;;
9665;SDS011;4871;52.004;5.924;2022-12-20T00:44:01;3.00;;;2.10;;
9665;SDS011;4871;52.004;5.924;2022-12-20T00:45:00;3.00;;;2.10;;
9665;SDS011;4871;52.004;5.924;2022-12-20T00:46:00;3.00;;;2.10;;
9665;SDS011;4871;52.004;5.924;2022-12-20T00:47:00;3.00;;;2.10;;
9665;SDS011;4871;52.004;5.924;2022-12-20T00:48:00;3.00;;;2.10;;
9665;SDS011;4871;52.004;5.924;2022-12-20T00:49:00;3.00;;;2.10;;
9665;SDS011;4871;52.004;5.924;2022-12-20T00:50:00;3.00;;;2.10;;
9665;SDS011;4871;52.004;5.924;2022-12-20T00:51:01;3.00;;;2.10;;
9665;SDS011;4871;52.004;5.924;2022-12-20T00:52:00;3.00;;;2.10;;
9665;SDS011;4871;52.004;5.924;2022-12-20T00:53:00;3.00;;;2.10;;
9665;SDS011;4871;52.004;5.924;2022-12-20T00:54:00;3.00;;;2.10;;
9665;SDS011;4871;52.004;5.924;2022-12-20T00:55:00;3.00;;;2.10;;
9665;SDS011;4871;52.004;5.924;2022-12-20T00:56:00;3.00;;;2.10;;
9665;SDS011;4871;52.004;5.924;2022-12-20T00:57:00;3.00;;;2.10;;
9665;SDS011;4871;52.004;5.924;2022-12-20T00:58:00;3.00;;;2.10;;
9665;SDS011;4871;52.004;5.924;2022-12-20T00:59:00;3.00;;;2.10;;
9665;SDS011;4871;52.004;5.924;2022-12-20T01:00:00;3.00;;;2.10;;
9665;SDS011;4871;52.004;5.924;2022-12-20T01:01:00;2.90;;;2.00;;
9665;SDS011;4871;52.004;5.924;2022-12-20T01:02:01;2.90;;;2.00;;
9665;SDS011;4871;52.004;5.924;2022-12-20T01:03:00;2.90;;;2.00;;
9665;SDS011;4871;52.004;5.924;2022-12-20T01:04:00;2.90;;;2.00;;
9665;SDS011;4871;52.004;5.924;2022-12-20T01:05:00;2.90;;;2.00;;
9665;SDS011;4871;52.004;5.924;2022-12-20T01:06:01;2.90;;;2.00;;
9665;SDS011;4871;52.004;5.924;2022-12-20T01:07:00;2.90;;;2.00;;
9665;SDS011;4871;52.004;5.924;2022-12-20T01:08:00;2.90;;;2.00;;
9665;SDS011;4871;52.004;5.924;2022-12-20T01:09:00;2.90;;;2.00;;
9665;SDS011;4871;52.004;5.924;2022-12-20T01:10:00;2.90;;;2.00;;
9665;SDS011;4871;52.004;5.924;2022-12-20T01:11:01;2.90;;;2.00;;
9665;SDS011;4871;52.004;5.924;2022-12-20T01:12:00;2.90;;;2.00;;
9665;SDS011;4871;52.004;5.924;2022-12-20T01:13:00;2.90;;;2.00;;
9665;SDS011;4871;52.004;5.924;2022-12-20T01:14:02;2.90;;;2.00;;
9665;SDS011;4871;52.004;5.924;2022-12-20T01:15:00;2.90;;;2.00;;
9665;SDS011;4871;52.004;5.924;2022-12-20T01:17:00;2.90;;;2.00;;
9665;SDS011;4871;52.004;5.924;2022-12-20T01:18:00;2.90;;;2.00;;
9665;SDS011;4871;52.004;5.924;2022-12-20T01:19:00;2.90;;;2.00;;
9665;SDS011;4871;52.004;5.924;2022-12-20T01:20:00;2.90;;;2.00;;
9665;SDS011;4871;52.004;5.924;2022-12-20T01:21:01;2.90;;;2.00;;
9665;SDS011;4871;52.004;5.924;2022-12-20T01:22:00;2.90;;;2.00;;
9665;SDS011;4871;52.004;5.924;2022-12-20T01:23:00;2.90;;;2.00;;
9665;SDS011;4871;52.004;5.924;2022-12-20T01:24:00;2.90;;;2.00;;
9665;SDS011;4871;52.004;5.924;2022-12-20T01:25:01;2.90;;;2.00;;
9665;SDS011;4871;52.004;5.924;2022-12-20T01:26:01;2.90;;;2.00;;
9665;SDS011;4871;52.004;5.924;2022-12-20T01:27:00;2.90;;;2.00;;
9665;SDS011;4871;52.004;5.924;2022-12-20T01:28:00;2.90;;;2.00;;
9665;SDS011;4871;52.004;5.924;2022-12-20T01:29:00;2.90;;;2.00;;
9665;SDS011;4871;52.004;5.924;2022-12-20T01:30:00;2.90;;;2.00;;
9665;SDS011;4871;52.004;5.924;2022-12-20T01:31:00;2.30;;;1.80;;
9665;SDS011;4871;52.004;5.924;2022-12-20T01:32:00;2.30;;;1.80;;
9665;SDS011;4871;52.004;5.924;2022-12-20T01:33:00;2.30;;;1.80;;
9665;SDS011;4871;52.004;5.924;2022-12-20T01:34:00;2.30;;;1.80;;
9665;SDS011;4871;52.004;5.924;2022-12-20T01:35:00;2.30;;;1.80;;
9665;SDS011;4871;52.004;5.924;2022-12-20T01:36:02;2.30;;;1.80;;
9665;SDS011;4871;52.004;5.924;2022-12-20T01:37:00;2.30;;;1.80;;
9665;SDS011;4871;52.004;5.924;2022-12-20T01:38:00;2.30;;;1.80;;
9665;SDS011;4871;52.004;5.924;2022-12-20T01:39:01;2.30;;;1.80;;
9665;SDS011;4871;52.004;5.924;2022-12-20T01:40:00;2.30;;;1.80;;
9665;SDS011;4871;52.004;5.924;2022-12-20T01:41:00;2.30;;;1.80;;
9665;SDS011;4871;52.004;5.924;2022-12-20T01:42:00;2.30;;;1.80;;
9665;SDS011;4871;52.004;5.924;2022-12-20T01:43:00;2.30;;;1.80;;
9665;SDS011;4871;52.004;5.924;2022-12-20T01:44:01;2.30;;;1.80;;
9665;SDS011;4871;52.004;5.924;2022-12-20T01:45:00;2.30;;;1.80;;
9665;SDS011;4871;52.004;5.924;2022-12-20T01:46:00;2.30;;;1.80;;
9665;SDS011;4871;52.004;5.924;2022-12-20T01:47:00;2.30;;;1.80;;
9665;SDS011;4871;52.004;5.924;2022-12-20T01:48:00;2.30;;;1.80;;
9665;SDS011;4871;52.004;5.924;2022-12-20T01:49:02;2.30;;;1.80;;
9665;SDS011;4871;52.004;5.924;2022-12-20T01:50:00;2.30;;;1.80;;
9665;SDS011;4871;52.004;5.924;2022-12-20T01:51:01;2.30;;;1.80;;
9665;SDS011;4871;52.004;5.924;2022-12-20T01:52:02;2.30;;;1.80;;
9665;SDS011;4871;52.004;5.924;2022-12-20T01:53:03;2.30;;;1.80;;
9665;SDS011;4871;52.004;5.924;2022-12-20T01:54:01;2.30;;;1.80;;
9665;SDS011;4871;52.004;5.924;2022-12-20T01:55:03;2.30;;;1.80;;
9665;SDS011;4871;52.004;5.924;2022-12-20T01:56:01;2.30;;;1.80;;
9665;SDS011;4871;52.004;5.924;2022-12-20T01:57:03;2.30;;;1.80;;
9665;SDS011;4871;52.004;5.924;2022-12-20T01:58:00;2.30;;;1.80;;
9665;SDS011;4871;52.004;5.924;2022-12-20T01:59:00;2.30;;;1.80;;
9665;SDS011;4871;52.004;5.924;2022-12-20T02:00:00;2.30;;;1.80;;
9665;SDS011;4871;52.004;5.924;2022-12-20T02:01:00;3.70;;;2.10;;
9665;SDS011;4871;52.004;5.924;2022-12-20T02:02:01;3.70;;;2.10;;
9665;SDS011;4871;52.004;5.924;2022-12-20T02:03:02;3.70;;;2.10;;
9665;SDS011;4871;52.004;5.924;2022-12-20T02:04:00;3.70;;;2.10;;
9665;SDS011;4871;52.004;5.924;2022-12-20T02:05:00;3.70;;;2.10;;
9665;SDS011;4871;52.004;5.924;2022-12-20T02:06:11;3.70;;;2.10;;
9665;SDS011;4871;52.004;5.924;2022-12-20T02:07:00;3.70;;;2.10;;
9665;SDS011;4871;52.004;5.924;2022-12-20T02:08:00;3.70;;;2.10;;
9665;SDS011;4871;52.004;5.924;2022-12-20T02:09:00;3.70;;;2.10;;
9665;SDS011;4871;52.004;5.924;2022-12-20T02:10:00;3.70;;;2.10;;
9665;SDS011;4871;52.004;5.924;2022-12-20T02:12:09;3.70;;;2.10;;
9665;SDS011;4871;52.004;5.924;2022-12-20T02:13:04;3.70;;;2.10;;
9665;SDS011;4871;52.004;5.924;2022-12-20T02:14:08;3.70;;;2.10;;
9665;SDS011;4871;52.004;5.924;2022-12-20T02:15:03;3.70;;;2.10;;
9665;SDS011;4871;52.004;5.924;2022-12-20T02:16:00;3.70;;;2.10;;
9665;SDS011;4871;52.004;5.924;2022-12-20T02:19:06;3.70;;;2.10;;
9665;SDS011;4871;52.004;5.924;2022-12-20T02:20:04;3.70;;;2.10;;
9665;SDS011;4871;52.004;5.924;2022-12-20T02:22:13;3.70;;;2.10;;
9665;SDS011;4871;52.004;5.924;2022-12-20T02:23:06;3.70;;;2.10;;
9665;SDS011;4871;52.004;5.924;2022-12-20T02:26:09;3.70;;;2.10;;
9665;SDS011;4871;52.004;5.924;2022-12-20T02:29:05;3.70;;;2.10;;
9665;SDS011;4871;52.004;5.924;2022-12-20T02:31:00;3.00;;;2.30;;
9665;SDS011;4871;52.004;5.924;2022-12-20T02:32:02;3.00;;;2.30;;
9665;SDS011;4871;52.004;5.924;2022-12-20T02:33:02;3.00;;;2.30;;
9665;SDS011;4871;52.004;5.924;2022-12-20T02:34:00;3.00;;;2.30;;
9665;SDS011;4871;52.004;5.924;2022-12-20T02:35:00;3.00;;;2.30;;
9665;SDS011;4871;52.004;5.924;2022-12-20T02:36:01;3.00;;;2.30;;
9665;SDS011;4871;52.004;5.924;2022-12-20T02:37:02;3.00;;;2.30;;
9665;SDS011;4871;52.004;5.924;2022-12-20T02:38:01;3.00;;;2.30;;
9665;SDS011;4871;52.004;5.924;2022-12-20T02:39:00;3.00;;;2.30;;
9665;SDS011;4871;52.004;5.924;2022-12-20T02:40:00;3.00;;;2.30;;
9665;SDS011;4871;52.004;5.924;2022-12-20T02:41:15;3.00;;;2.30;;
9665;SDS011;4871;52.004;5.924;2022-12-20T02:42:01;3.00;;;2.30;;
9665;SDS011;4871;52.004;5.924;2022-12-20T02:43:01;3.00;;;2.30;;
9665;SDS011;4871;52.004;5.924;2022-12-20T02:44:11;3.00;;;2.30;;
9665;SDS011;4871;52.004;5.924;2022-12-20T02:45:14;3.00;;;2.30;;
9665;SDS011;4871;52.004;5.924;2022-12-20T02:46:00;3.00;;;2.30;;
9665;SDS011;4871;52.004;5.924;2022-12-20T02:47:01;3.00;;;2.30;;
9665;SDS011;4871;52.004;5.924;2022-12-20T02:48:02;3.00;;;2.30;;
9665;SDS011;4871;52.004;5.924;2022-12-20T02:49:01;3.00;;;2.30;;
9665;SDS011;4871;52.004;5.924;2022-12-20T02:50:00;3.00;;;2.30;;
9665;SDS011;4871;52.004;5.924;2022-12-20T02:51:00;3.00;;;2.30;;
9665;SDS011;4871;52.004;5.924;2022-12-20T02:52:00;3.00;;;2.30;;
9665;SDS011;4871;52.004;5.924;2022-12-20T02:53:00;3.00;;;2.30;;
9665;SDS011;4871;52.004;5.924;2022-12-20T02:54:00;3.00;;;2.30;;
9665;SDS011;4871;52.004;5.924;2022-12-20T02:55:00;3.00;;;2.30;;
9665;SDS011;4871;52.004;5.924;2022-12-20T02:56:02;3.00;;;2.30;;
9665;SDS011;4871;52.004;5.924;2022-12-20T02:57:04;3.00;;;2.30;;
9665;SDS011;4871;52.004;5.924;2022-12-20T02:58:01;3.00;;;2.30;;
9665;SDS011;4871;52.004;5.924;2022-12-20T02:59:02;3.00;;;2.30;;
9665;SDS011;4871;52.004;5.924;2022-12-20T03:01:05;3.30;;;2.30;;
9665;SDS011;4871;52.004;5.924;2022-12-20T03:02:00;3.30;;;2.30;;
9665;SDS011;4871;52.004;5.924;2022-12-20T03:03:12;3.30;;;2.30;;
9665;SDS011;4871;52.004;5.924;2022-12-20T03:04:00;3.30;;;2.30;;
9665;SDS011;4871;52.004;5.924;2022-12-20T03:05:00;3.30;;;2.30;;
9665;SDS011;4871;52.004;5.924;2022-12-20T03:06:00;3.30;;;2.30;;
9665;SDS011;4871;52.004;5.924;2022-12-20T03:07:03;3.30;;;2.30;;
9665;SDS011;4871;52.004;5.924;2022-12-20T03:08:00;3.30;;;2.30;;
9665;SDS011;4871;52.004;5.924;2022-12-20T03:09:00;3.30;;;2.30;;
9665;SDS011;4871;52.004;5.924;2022-12-20T03:10:00;3.30;;;2.30;;
9665;SDS011;4871;52.004;5.924;2022-12-20T03:11:00;3.30;;;2.30;;
9665;SDS011;4871;52.004;5.924;2022-12-20T03:12:00;3.30;;;2.30;;
9665;SDS011;4871;52.004;5.924;2022-12-20T03:13:00;3.30;;;2.30;;
9665;SDS011;4871;52.004;5.924;2022-12-20T03:14:00;3.30;;;2.30;;
9665;SDS011;4871;52.004;5.924;2022-12-20T03:15:00;3.30;;;2.30;;
9665;SDS011;4871;52.004;5.924;2022-12-20T03:16:00;3.30;;;2.30;;
9665;SDS011;4871;52.004;5.924;2022-12-20T03:17:01;3.30;;;2.30;;
9665;SDS011;4871;52.004;5.924;2022-12-20T03:18:00;3.30;;;2.30;;
9665;SDS011;4871;52.004;5.924;2022-12-20T03:19:00;3.30;;;2.30;;
9665;SDS011;4871;52.004;5.924;2022-12-20T03:20:00;3.30;;;2.30;;
9665;SDS011;4871;52.004;5.924;2022-12-20T03:21:00;3.30;;;2.30;;
9665;SDS011;4871;52.004;5.924;2022-12-20T03:22:00;3.30;;;2.30;;
9665;SDS011;4871;52.004;5.924;2022-12-20T03:23:00;3.30;;;2.30;;
9665;SDS011;4871;52.004;5.924;2022-12-20T03:24:00;3.30;;;2.30;;
9665;SDS011;4871;52.004;5.924;2022-12-20T03:25:00;3.30;;;2.30;;
9665;SDS011;4871;52.004;5.924;2022-12-20T03:26:00;3.30;;;2.30;;
9665;SDS011;4871;52.004;5.924;2022-12-20T03:27:00;3.30;;;2.30;;
9665;SDS011;4871;52.004;5.924;2022-12-20T03:28:00;3.30;;;2.30;;
9665;SDS011;4871;52.004;5.924;2022-12-20T03:29:00;3.30;;;2.30;;
9665;SDS011;4871;52.004;5.924;2022-12-20T03:30:00;3.30;;;2.30;;
9665;SDS011;4871;52.004;5.924;2022-12-20T03:31:00;2.50;;;2.30;;
9665;SDS011;4871;52.004;5.924;2022-12-20T03:32:00;2.50;;;2.30;;
9665;SDS011;4871;52.004;5.924;2022-12-20T03:33:00;2.50;;;2.30;;
9665;SDS011;4871;52.004;5.924;2022-12-20T03:34:00;2.50;;;2.30;;
9665;SDS011;4871;52.004;5.924;2022-12-20T03:35:00;2.50;;;2.30;;
9665;SDS011;4871;52.004;5.924;2022-12-20T03:36:00;2.50;;;2.30;;
9665;SDS011;4871;52.004;5.924;2022-12-20T03:37:00;2.50;;;2.30;;
9665;SDS011;4871;52.004;5.924;2022-12-20T03:38:00;2.50;;;2.30;;
9665;SDS011;4871;52.004;5.924;2022-12-20T03:39:00;2.50;;;2.30;;
9665;SDS011;4871;52.004;5.924;2022-12-20T03:40:00;2.50;;;2.30;;
9665;SDS011;4871;52.004;5.924;2022-12-20T03:41:00;2.50;;;2.30;;
9665;SDS011;4871;52.004;5.924;2022-12-20T03:42:00;2.50;;;2.30;;
9665;SDS011;4871;52.004;5.924;2022-12-20T03:43:00;2.50;;;2.30;;
9665;SDS011;4871;52.004;5.924;2022-12-20T03:44:00;2.50;;;2.30;;
9665;SDS011;4871;52.004;5.924;2022-12-20T03:45:00;2.50;;;2.30;;
9665;SDS011;4871;52.004;5.924;2022-12-20T03:46:00;2.50;;;2.30;;
9665;SDS011;4871;52.004;5.924;2022-12-20T03:47:00;2.50;;;2.30;;
9665;SDS011;4871;52.004;5.924;2022-12-20T03:48:00;2.50;;;2.30;;
9665;SDS011;4871;52.004;5.924;2022-12-20T03:49:00;2.50;;;2.30;;
9665;SDS011;4871;52.004;5.924;2022-12-20T03:50:00;2.50;;;2.30;;
9665;SDS011;4871;52.004;5.924;2022-12-20T03:51:00;2.50;;;2.30;;
9665;SDS011;4871;52.004;5.924;2022-12-20T03:52:00;2.50;;;2.30;;
9665;SDS011;4871;52.004;5.924;2022-12-20T03:53:00;2.50;;;2.30;;
9665;SDS011;4871;52.004;5.924;2022-12-20T03:54:00;2.50;;;2.30;;
9665;SDS011;4871;52.004;5.924;2022-12-20T03:55:00;2.50;;;2.30;;
9665;SDS011;4871;52.004;5.924;2022-12-20T03:56:00;2.50;;;2.30;;
9665;SDS011;4871;52.004;5.924;2022-12-20T03:57:00;2.50;;;2.30;;
9665;SDS011;4871;52.004;5.924;2022-12-20T03:58:00;2.50;;;2.30;;
9665;SDS011;4871;52.004;5.924;2022-12-20T03:59:00;2.50;;;2.30;;
9665;SDS011;4871;52.004;5.924;2022-12-20T04:00:00;2.50;;;2.30;;
9665;SDS011;4871;52.004;5.924;2022-12-20T04:01:00;3.10;;;2.50;;
9665;SDS011;4871;52.004;5.924;2022-12-20T04:02:00;3.10;;;2.50;;
9665;SDS011;4871;52.004;5.924;2022-12-20T04:03:00;3.10;;;2.50;;
9665;SDS011;4871;52.004;5.924;2022-12-20T04:04:00;3.10;;;2.50;;
9665;SDS011;4871;52.004;5.924;2022-12-20T04:05:00;3.10;;;2.50;;
9665;SDS011;4871;52.004;5.924;2022-12-20T04:06:00;3.10;;;2.50;;
9665;SDS011;4871;52.004;5.924;2022-12-20T04:07:00;3.10;;;2.50;;
9665;SDS011;4871;52.004;5.924;2022-12-20T04:08:00;3.10;;;2.50;;
9665;SDS011;4871;52.004;5.924;2022-12-20T04:09:00;3.10;;;2.50;;
9665;SDS011;4871;52.004;5.924;2022-12-20T04:10:00;3.10;;;2.50;;
9665;SDS011;4871;52.004;5.924;2022-12-20T04:11:10;3.10;;;2.50;;
9665;SDS011;4871;52.004;5.924;2022-12-20T04:12:00;3.10;;;2.50;;
9665;SDS011;4871;52.004;5.924;2022-12-20T04:13:00;3.10;;;2.50;;
9665;SDS011;4871;52.004;5.924;2022-12-20T04:14:00;3.10;;;2.50;;
9665;SDS011;4871;52.004;5.924;2022-12-20T04:15:00;3.10;;;2.50;;
9665;SDS011;4871;52.004;5.924;2022-12-20T04:16:00;3.10;;;2.50;;
9665;SDS011;4871;52.004;5.924;2022-12-20T04:17:00;3.10;;;2.50;;
9665;SDS011;4871;52.004;5.924;2022-12-20T04:18:00;3.10;;;2.50;;
9665;SDS011;4871;52.004;5.924;2022-12-20T04:19:00;3.10;;;2.50;;
9665;SDS011;4871;52.004;5.924;2022-12-20T04:20:16;3.10;;;2.50;;
9665;SDS011;4871;52.004;5.924;2022-12-20T04:21:00;3.10;;;2.50;;
9665;SDS011;4871;52.004;5.924;2022-12-20T04:22:00;3.10;;;2.50;;
9665;SDS011;4871;52.004;5.924;2022-12-20T04:23:00;3.10;;;2.50;;
9665;SDS011;4871;52.004;5.924;2022-12-20T04:24:01;3.10;;;2.50;;
9665;SDS011;4871;52.004;5.924;2022-12-20T04:25:00;3.10;;;2.50;;
9665;SDS011;4871;52.004;5.924;2022-12-20T04:26:01;3.10;;;2.50;;
9665;SDS011;4871;52.004;5.924;2022-12-20T04:27:00;3.10;;;2.50;;
9665;SDS011;4871;52.004;5.924;2022-12-20T04:28:00;3.10;;;2.50;;
9665;SDS011;4871;52.004;5.924;2022-12-20T04:29:00;3.10;;;2.50;;
9665;SDS011;4871;52.004;5.924;2022-12-20T04:30:00;3.10;;;2.50;;
9665;SDS011;4871;52.004;5.924;2022-12-20T04:31:00;2.90;;;2.60;;
9665;SDS011;4871;52.004;5.924;2022-12-20T04:32:00;2.90;;;2.60;;
9665;SDS011;4871;52.004;5.924;2022-12-20T04:33:00;2.90;;;2.60;;
9665;SDS011;4871;52.004;5.924;2022-12-20T04:34:00;2.90;;;2.60;;
9665;SDS011;4871;52.004;5.924;2022-12-20T04:35:00;2.90;;;2.60;;
9665;SDS011;4871;52.004;5.924;2022-12-20T04:36:00;2.90;;;2.60;;
9665;SDS011;4871;52.004;5.924;2022-12-20T04:37:00;2.90;;;2.60;;
9665;SDS011;4871;52.004;5.924;2022-12-20T04:38:00;2.90;;;2.60;;
9665;SDS011;4871;52.004;5.924;2022-12-20T04:39:00;2.90;;;2.60;;
9665;SDS011;4871;52.004;5.924;2022-12-20T04:40:00;2.90;;;2.60;;
9665;SDS011;4871;52.004;5.924;2022-12-20T04:41:00;2.90;;;2.60;;
9665;SDS011;4871;52.004;5.924;2022-12-20T04:42:00;2.90;;;2.60;;
9665;SDS011;4871;52.004;5.924;2022-12-20T04:43:00;2.90;;;2.60;;
9665;SDS011;4871;52.004;5.924;2022-12-20T04:44:00;2.90;;;2.60;;
9665;SDS011;4871;52.004;5.924;2022-12-20T04:45:00;2.90;;;2.60;;
9665;SDS011;4871;52.004;5.924;2022-12-20T04:46:00;2.90;;;2.60;;
9665;SDS011;4871;52.004;5.924;2022-12-20T04:47:00;2.90;;;2.60;;
9665;SDS011;4871;52.004;5.924;2022-12-20T04:48:00;2.90;;;2.60;;
9665;SDS011;4871;52.004;5.924;2022-12-20T04:49:00;2.90;;;2.60;;
9665;SDS011;4871;52.004;5.924;2022-12-20T04:50:00;2.90;;;2.60;;
9665;SDS011;4871;52.004;5.924;2022-12-20T04:51:00;2.90;;;2.60;;
9665;SDS011;4871;52.004;5.924;2022-12-20T04:52:10;2.90;;;2.60;;
9665;SDS011;4871;52.004;5.924;2022-12-20T04:53:14;2.90;;;2.60;;
9665;SDS011;4871;52.004;5.924;2022-12-20T04:54:00;2.90;;;2.60;;
9665;SDS011;4871;52.004;5.924;2022-12-20T04:55:00;2.90;;;2.60;;
9665;SDS011;4871;52.004;5.924;2022-12-20T04:56:00;2.90;;;2.60;;
9665;SDS011;4871;52.004;5.924;2022-12-20T04:57:00;2.90;;;2.60;;
9665;SDS011;4871;52.004;5.924;2022-12-20T04:58:00;2.90;;;2.60;;
9665;SDS011;4871;52.004;5.924;2022-12-20T04:59:01;2.90;;;2.60;;
9665;SDS011;4871;52.004;5.924;2022-12-20T05:00:00;2.90;;;2.60;;
9665;SDS011;4871;52.004;5.924;2022-12-20T05:01:00;3.10;;;2.60;;
9665;SDS011;4871;52.004;5.924;2022-12-20T05:02:00;3.10;;;2.60;;
9665;SDS011;4871;52.004;5.924;2022-12-20T05:03:00;3.10;;;2.60;;
9665;SDS011;4871;52.004;5.924;2022-12-20T05:04:01;3.10;;;2.60;;
9665;SDS011;4871;52.004;5.924;2022-12-20T05:05:00;3.10;;;2.60;;
9665;SDS011;4871;52.004;5.924;2022-12-20T05:06:00;3.10;;;2.60;;
9665;SDS011;4871;52.004;5.924;2022-12-20T05:07:00;3.10;;;2.60;;
9665;SDS011;4871;52.004;5.924;2022-12-20T05:08:00;3.10;;;2.60;;
9665;SDS011;4871;52.004;5.924;2022-12-20T05:09:00;3.10;;;2.60;;
9665;SDS011;4871;52.004;5.924;2022-12-20T05:10:00;3.10;;;2.60;;
9665;SDS011;4871;52.004;5.924;2022-12-20T05:11:00;3.10;;;2.60;;
9665;SDS011;4871;52.004;5.924;2022-12-20T05:12:00;3.10;;;2.60;;
9665;SDS011;4871;52.004;5.924;2022-12-20T05:13:00;3.10;;;2.60;;
9665;SDS011;4871;52.004;5.924;2022-12-20T05:14:00;3.10;;;2.60;;
9665;SDS011;4871;52.004;5.924;2022-12-20T05:15:00;3.10;;;2.60;;
9665;SDS011;4871;52.004;5.924;2022-12-20T05:16:00;3.10;;;2.60;;
9665;SDS011;4871;52.004;5.924;2022-12-20T05:17:00;3.10;;;2.60;;
9665;SDS011;4871;52.004;5.924;2022-12-20T05:18:00;3.10;;;2.60;;
9665;SDS011;4871;52.004;5.924;2022-12-20T05:19:02;3.10;;;2.60;;
9665;SDS011;4871;52.004;5.924;2022-12-20T05:20:00;3.10;;;2.60;;
9665;SDS011;4871;52.004;5.924;2022-12-20T05:21:12;3.10;;;2.60;;
9665;SDS011;4871;52.004;5.924;2022-12-20T05:22:10;3.10;;;2.60;;
9665;SDS011;4871;52.004;5.924;2022-12-20T05:23:14;3.10;;;2.60;;
9665;SDS011;4871;52.004;5.924;2022-12-20T05:24:10;3.10;;;2.60;;
9665;SDS011;4871;52.004;5.924;2022-12-20T05:25:13;3.10;;;2.60;;
9665;SDS011;4871;52.004;5.924;2022-12-20T05:26:01;3.10;;;2.60;;
9665;SDS011;4871;52.004;5.924;2022-12-20T05:27:00;3.10;;;2.60;;
9665;SDS011;4871;52.004;5.924;2022-12-20T05:28:00;3.10;;;2.60;;
9665;SDS011;4871;52.004;5.924;2022-12-20T05:29:00;3.10;;;2.60;;
9665;SDS011;4871;52.004;5.924;2022-12-20T05:30:00;3.10;;;2.60;;
9665;SDS011;4871;52.004;5.924;2022-12-20T05:31:00;3.70;;;2.70;;
9665;SDS011;4871;52.004;5.924;2022-12-20T05:32:00;3.70;;;2.70;;
9665;SDS011;4871;52.004;5.924;2022-12-20T05:33:00;3.70;;;2.70;;
9665;SDS011;4871;52.004;5.924;2022-12-20T05:34:00;3.70;;;2.70;;
9665;SDS011;4871;52.004;5.924;2022-12-20T05:35:00;3.70;;;2.70;;
9665;SDS011;4871;52.004;5.924;2022-12-20T05:36:00;3.70;;;2.70;;
9665;SDS011;4871;52.004;5.924;2022-12-20T05:37:00;3.70;;;2.70;;
9665;SDS011;4871;52.004;5.924;2022-12-20T05:38:01;3.70;;;2.70;;
9665;SDS011;4871;52.004;5.924;2022-12-20T05:39:00;3.70;;;2.70;;
9665;SDS011;4871;52.004;5.924;2022-12-20T05:40:00;3.70;;;2.70;;
9665;SDS011;4871;52.004;5.924;2022-12-20T05:41:00;3.70;;;2.70;;
9665;SDS011;4871;52.004;5.924;2022-12-20T05:42:00;3.70;;;2.70;;
9665;SDS011;4871;52.004;5.924;2022-12-20T05:43:00;3.70;;;2.70;;
9665;SDS011;4871;52.004;5.924;2022-12-20T05:44:00;3.70;;;2.70;;
9665;SDS011;4871;52.004;5.924;2022-12-20T05:45:00;3.70;;;2.70;;
9665;SDS011;4871;52.004;5.924;2022-12-20T05:46:00;3.70;;;2.70;;
9665;SDS011;4871;52.004;5.924;2022-12-20T05:47:00;3.70;;;2.70;;
9665;SDS011;4871;52.004;5.924;2022-12-20T05:48:00;3.70;;;2.70;;
9665;SDS011;4871;52.004;5.924;2022-12-20T05:49:00;3.70;;;2.70;;
9665;SDS011;4871;52.004;5.924;2022-12-20T05:50:00;3.70;;;2.70;;
9665;SDS011;4871;52.004;5.924;2022-12-20T05:51:00;3.70;;;2.70;;
9665;SDS011;4871;52.004;5.924;2022-12-20T05:52:01;3.70;;;2.70;;
9665;SDS011;4871;52.004;5.924;2022-12-20T05:53:00;3.70;;;2.70;;
9665;SDS011;4871;52.004;5.924;2022-12-20T05:54:00;3.70;;;2.70;;
9665;SDS011;4871;52.004;5.924;2022-12-20T05:55:00;3.70;;;2.70;;
9665;SDS011;4871;52.004;5.924;2022-12-20T05:56:00;3.70;;;2.70;;
9665;SDS011;4871;52.004;5.924;2022-12-20T05:57:00;3.70;;;2.70;;
9665;SDS011;4871;52.004;5.924;2022-12-20T05:58:00;3.70;;;2.70;;
9665;SDS011;4871;52.004;5.924;2022-12-20T05:59:00;3.70;;;2.70;;
9665;SDS011;4871;52.004;5.924;2022-12-20T06:00:00;3.70;;;2.70;;
9665;SDS011;4871;52.004;5.924;2022-12-20T06:01:02;3.40;;;2.30;;
9665;SDS011;4871;52.004;5.924;2022-12-20T06:02:00;3.40;;;2.30;;
9665;SDS011;4871;52.004;5.924;2022-12-20T06:03:00;3.40;;;2.30;;
9665;SDS011;4871;52.004;5.924;2022-12-20T06:04:00;3.40;;;2.30;;
9665;SDS011;4871;52.004;5.924;2022-12-20T06:05:01;3.40;;;2.30;;
9665;SDS011;4871;52.004;5.924;2022-12-20T06:06:00;3.40;;;2.30;;
9665;SDS011;4871;52.004;5.924;2022-12-20T06:07:00;3.40;;;2.30;;
9665;SDS011;4871;52.004;5.924;2022-12-20T06:08:00;3.40;;;2.30;;
9665;SDS011;4871;52.004;5.924;2022-12-20T06:09:00;3.40;;;2.30;;
9665;SDS011;4871;52.004;5.924;2022-12-20T06:10:00;3.40;;;2.30;;
9665;SDS011;4871;52.004;5.924;2022-12-20T06:11:03;3.40;;;2.30;;
9665;SDS011;4871;52.004;5.924;2022-12-20T06:12:00;3.40;;;2.30;;
9665;SDS011;4871;52.004;5.924;2022-12-20T06:13:01;3.40;;;2.30;;
9665;SDS011;4871;52.004;5.924;2022-12-20T06:14:00;3.40;;;2.30;;
9665;SDS011;4871;52.004;5.924;2022-12-20T06:15:00;3.40;;;2.30;;
9665;SDS011;4871;52.004;5.924;2022-12-20T06:16:00;3.40;;;2.30;;
9665;SDS011;4871;52.004;5.924;2022-12-20T06:17:00;3.40;;;2.30;;
9665;SDS011;4871;52.004;5.924;2022-12-20T06:18:00;3.40;;;2.30;;
9665;SDS011;4871;52.004;5.924;2022-12-20T06:19:01;3.40;;;2.30;;
9665;SDS011;4871;52.004;5.924;2022-12-20T06:20:00;3.40;;;2.30;;
9665;SDS011;4871;52.004;5.924;2022-12-20T06:21:00;3.40;;;2.30;;
9665;SDS011;4871;52.004;5.924;2022-12-20T06:22:00;3.40;;;2.30;;
9665;SDS011;4871;52.004;5.924;2022-12-20T06:23:00;3.40;;;2.30;;